Time;durP1;ratioP1;P1;durP2;ratioP2;P2;SDS_P1;SDS_P2;PMS_P1;PMS_P2;Temp;Humidity;BMP_temperature;BMP_pressure;BME280_temperature;BME280_humidity;BME280_pressure;Samples;Min_cycle;Max_cycle;Signal;HPM_P1;HPM_P2
2022/09/13 00:02:21;;;;;;;28.07;21.97;;;;;;;17.65;100.00;99620.22;1637776;86;21170;-74
2022/09/13 00:04:47;;;;;;;30.02;22.70;;;;;;;17.53;100.00;99612.19;1639860;86;21041;-73
2022/09/13 00:07:16;;;;;;;32.13;22.42;;;;;;;17.65;100.00;99612.90;1619812;87;21111;-74
2022/09/13 00:09:43;;;;;;;30.27;23.32;;;;;;;17.60;100.00;99620.63;1633657;86;21111;-73
2022/09/13 00:12:10;;;;;;;32.03;23.35;;;;;;;17.63;100.00;99619.05;1639775;86;21068;-74
2022/09/13 00:14:37;;;;;;;31.25;23.47;;;;;;;17.66;100.00;99621.03;1630995;86;21102;-73
2022/09/13 00:17:05;;;;;;;31.07;22.82;;;;;;;17.68;100.00;99612.61;1633648;86;21000;-74
2022/09/13 00:19:33;;;;;;;28.92;22.98;;;;;;;17.69;100.00;99617.69;1625187;86;22255;-74
2022/09/13 00:22:00;;;;;;;29.15;23.12;;;;;;;17.71;100.00;99614.47;1644279;86;21499;-74
2022/09/13 00:24:27;;;;;;;27.02;22.50;;;;;;;17.71;100.00;99609.27;1646480;85;21042;-74
2022/09/13 00:26:53;;;;;;;30.27;22.75;;;;;;;17.75;100.00;99606.73;1639319;86;20993;-73
2022/09/13 00:29:21;;;;;;;28.55;23.25;;;;;;;17.78;100.00;99605.63;1639496;86;20968;-74
2022/09/13 00:31:48;;;;;;;34.53;22.42;;;;;;;17.80;100.00;99603.27;1640559;86;21038;-73
2022/09/13 00:34:15;;;;;;;28.05;22.32;;;;;;;17.84;100.00;99602.52;1634955;86;21052;-74
2022/09/13 00:36:42;;;;;;;28.23;22.62;;;;;;;17.81;100.00;99598.87;1632706;86;21580;-73
2022/09/13 00:39:10;;;;;;;26.70;21.75;;;;;;;17.87;100.00;99600.14;1632962;86;21019;-74
2022/09/13 00:41:38;;;;;;;30.32;22.58;;;;;;;17.92;100.00;99596.63;1633830;85;21040;-74
2022/09/13 00:44:05;;;;;;;29.60;22.37;;;;;;;17.93;100.00;99589.18;1635508;86;21070;-74
2022/09/13 00:46:43;;;;;;;27.25;21.77;;;;;;;17.98;100.00;99593.48;1616694;86;21543;-75
2022/09/13 00:49:24;;;;;;;29.12;22.70;;;;;;;18.03;100.00;99589.99;1647644;86;20985;-74
2022/09/13 00:52:02;;;;;;;27.45;22.02;;;;;;;18.08;100.00;99592.98;1632120;86;21040;-74
2022/09/13 00:54:34;;;;;;;29.95;23.07;;;;;;;18.10;100.00;99591.56;1640191;86;20980;-74
2022/09/13 00:57:04;;;;;;;30.23;23.47;;;;;;;18.07;100.00;99588.76;1631832;86;21020;-74
2022/09/13 00:59:37;;;;;;;27.20;22.13;;;;;;;18.14;100.00;99592.92;1631658;86;21036;-74
2022/09/13 01:02:04;;;;;;;25.90;22.05;;;;;;;18.15;100.00;99598.49;1623886;86;21029;-74
2022/09/13 01:04:34;;;;;;;29.70;22.48;;;;;;;18.16;100.00;99602.23;1620580;87;21035;-74
2022/09/13 01:07:06;;;;;;;28.32;21.97;;;;;;;18.13;100.00;99600.41;1641830;85;21056;-74
2022/09/13 01:09:40;;;;;;;27.58;22.40;;;;;;;18.16;100.00;99598.33;1636246;86;21023;-75
2022/09/13 01:12:45;;;;;;;29.57;22.27;;;;;;;18.19;100.00;99595.46;1630493;86;21071;-75
2022/09/13 01:15:12;;;;;;;30.72;24.43;;;;;;;18.27;100.00;99589.56;1636551;86;21058;-74
2022/09/13 01:17:42;;;;;;;31.70;24.98;;;;;;;18.28;100.00;99597.70;1643506;86;21152;-74
2022/09/13 01:20:12;;;;;;;35.98;25.05;;;;;;;18.24;100.00;99591.13;1624721;86;21011;-74
2022/09/13 01:23:03;;;;;;;34.55;25.62;;;;;;;18.28;100.00;99592.98;1608806;87;21031;-75
2022/09/13 01:25:41;;;;;;;35.30;25.85;;;;;;;18.33;100.00;99600.73;1644435;86;21042;-74
2022/09/13 01:28:26;;;;;;;42.85;28.27;;;;;;;18.33;100.00;99602.48;1641755;86;21033;-74
2022/09/13 01:31:18;;;;;;;42.95;29.70;;;;;;;18.28;100.00;99600.80;1600185;86;21056;-74
2022/09/13 01:33:58;;;;;;;52.25;33.58;;;;;;;18.35;100.00;99601.86;1626000;86;21108;-74
2022/09/13 01:36:45;;;;;;;50.73;34.03;;;;;;;18.37;100.00;99595.58;1633941;86;21594;-74
2022/09/13 01:39:24;;;;;;;57.60;35.33;;;;;;;18.37;100.00;99594.27;1633411;86;21040;-74
2022/09/13 01:42:15;;;;;;;54.70;34.73;;;;;;;18.45;100.00;99594.88;1637581;87;21068;-74
2022/09/13 01:45:27;;;;;;;56.45;35.58;;;;;;;18.40;100.00;99598.38;1636546;86;21566;-74
2022/09/13 01:48:06;;;;;;;61.00;35.43;;;;;;;18.42;100.00;99596.45;1623460;86;21127;-75
2022/09/13 01:50:45;;;;;;;57.88;35.75;;;;;;;18.42;100.00;99599.87;1617434;86;21022;-75
2022/09/13 01:53:35;;;;;;;56.05;35.88;;;;;;;18.40;100.00;99593.98;1627194;87;21023;-75
2022/09/13 01:56:20;;;;;;;65.15;37.85;;;;;;;18.41;100.00;99592.22;1630504;86;21079;-74
2022/09/13 01:58:58;;;;;;;;;;;;;;;18.44;100.00;99593.22;1626879;87;21066;-74
2022/09/13 02:01:39;;;;;;;65.95;38.13;;;;;;;18.44;100.00;99595.02;1646062;86;20173;-75
2022/09/13 02:04:15;;;;;;;62.90;38.20;;;;;;;18.44;100.00;99601.53;1632081;86;21079;-74
2022/09/13 02:06:59;;;;;;;62.03;35.25;;;;;;;18.47;100.00;99596.86;1638605;86;21131;-74
2022/09/13 02:09:31;;;;;;;52.33;34.00;;;;;;;18.46;100.00;99597.00;1631377;86;21005;-73
2022/09/13 02:12:05;;;;;;;53.75;32.48;;;;;;;18.40;100.00;99597.88;1621697;86;21044;-74
2022/09/13 02:14:37;;;;;;;54.88;34.25;;;;;;;18.44;100.00;99596.31;1632859;86;21025;-73
2022/09/13 02:17:21;;;;;;;56.55;33.95;;;;;;;18.47;100.00;99599.47;1637442;86;21067;-74
2022/09/13 02:20:01;;;;;;;50.05;32.58;;;;;;;18.50;100.00;99596.56;1639062;86;21487;-74
2022/09/13 02:22:36;;;;;;;58.60;33.58;;;;;;;18.51;100.00;99593.02;1636086;86;21048;-73
2022/09/13 02:25:16;;;;;;;53.60;33.95;;;;;;;18.49;100.00;99595.39;1645682;86;21036;-74
2022/09/13 02:27:48;;;;;;;54.85;33.00;;;;;;;18.45;100.00;99596.19;1618690;87;21051;-73
2022/09/13 02:30:16;;;;;;;54.67;32.45;;;;;;;18.47;100.00;99591.66;1639811;86;21000;-73
2022/09/13 02:32:56;;;;;;;48.98;30.25;;;;;;;18.52;100.00;99592.03;1635837;86;21022;-74
2022/09/13 02:35:37;;;;;;;50.40;32.45;;;;;;;18.61;100.00;99590.35;1629616;86;22195;-74
2022/09/13 02:38:34;;;;;;;52.62;32.30;;;;;;;18.67;100.00;99593.70;1640012;86;21073;-73
2022/09/13 02:41:13;;;;;;;53.20;32.05;;;;;;;18.62;100.00;99592.02;1615698;87;21063;-74
2022/09/13 02:43:45;;;;;;;51.83;32.05;;;;;;;18.59;100.00;99594.43;1624759;86;21023;-75
2022/09/13 02:46:36;;;;;;;49.50;31.00;;;;;;;18.61;100.00;99592.96;1622098;87;21532;-74
2022/09/13 02:49:55;;;;;;;47.10;29.92;;;;;;;18.64;100.00;99594.48;1640475;86;21066;-74
2022/09/13 02:52:36;;;;;;;47.08;29.90;;;;;;;18.51;100.00;99595.62;1634185;85;21040;-74
2022/09/13 02:55:39;;;;;;;46.73;29.30;;;;;;;18.37;100.00;99596.87;1645823;86;21036;-74
2022/09/13 02:58:40;;;;;;;50.50;29.75;;;;;;;18.31;100.00;99588.32;1617480;87;21091;-74
2022/09/13 03:01:08;;;;;;;45.80;28.80;;;;;;;18.28;100.00;99587.28;1635898;86;21066;-74
2022/09/13 03:03:35;;;;;;;47.90;29.10;;;;;;;18.28;100.00;99591.68;1637463;86;21032;-74
2022/09/13 03:06:02;;;;;;;46.48;30.27;;;;;;;18.30;100.00;99585.84;1637481;86;21023;-73
2022/09/13 03:08:30;;;;;;;50.33;30.90;;;;;;;18.29;100.00;99585.49;1620249;86;21095;-74
2022/09/13 03:11:33;;;;;;;47.13;30.57;;;;;;;18.28;100.00;99582.56;1630326;86;21039;-73
2022/09/13 03:14:09;;;;;;;52.13;30.62;;;;;;;18.25;100.00;99581.52;1640939;86;21020;-73
2022/09/13 03:17:06;;;;;;;55.35;32.58;;;;;;;18.21;100.00;99577.91;1632131;86;21114;-73
2022/09/13 03:19:59;;;;;;;51.92;31.27;;;;;;;18.24;100.00;99578.10;1604683;88;21044;-73
2022/09/13 03:22:38;;;;;;;51.48;31.42;;;;;;;18.25;100.00;99569.34;1609368;87;21004;-73
2022/09/13 03:25:22;;;;;;;61.37;31.57;;;;;;;18.36;100.00;99573.07;1620873;88;21552;-72
2022/09/13 03:28:12;;;;;;;;;;;;;;;18.34;100.00;99573.70;1645600;86;21068;-73
2022/09/13 03:30:44;;;;;;;66.45;35.23;;;;;;;18.27;100.00;99570.48;1638141;86;20160;-72
2022/09/13 03:33:25;;;;;;;60.00;34.53;;;;;;;18.27;100.00;99569.18;1635146;86;20985;-73
2022/09/13 03:36:16;;;;;;;65.57;36.17;;;;;;;18.26;100.00;99566.25;1613108;86;21032;-72
2022/09/13 03:38:51;;;;;;;75.92;38.45;;;;;;;18.25;100.00;99564.59;1638115;86;21075;-73
2022/09/13 03:41:24;;;;;;;81.40;41.48;;;;;;;18.19;100.00;99570.72;1635888;86;22538;-72
2022/09/13 03:43:58;;;;;;;102.25;47.67;;;;;;;18.19;100.00;99569.41;1635972;86;21680;-72
2022/09/13 03:46:35;;;;;;;105.85;49.48;;;;;;;18.10;100.00;99568.94;1633385;86;21535;-73
2022/09/13 03:49:13;;;;;;;117.30;50.15;;;;;;;17.99;100.00;99563.89;1632891;85;21456;-73
2022/09/13 03:51:43;;;;;;;114.00;50.23;;;;;;;17.85;100.00;99566.42;1633777;86;21097;-72
2022/09/13 03:54:15;;;;;;;119.70;51.95;;;;;;;17.85;100.00;99560.41;1634945;86;21036;-72
2022/09/13 03:56:43;;;;;;;112.80;48.40;;;;;;;17.92;100.00;99566.20;1628464;86;21200;-72
2022/09/13 03:59:10;;;;;;;102.67;45.50;;;;;;;17.92;100.00;99566.20;1639071;87;21548;-73
2022/09/13 04:01:39;;;;;;;104.05;45.35;;;;;;;17.85;100.00;99561.70;1641123;85;21001;-72
2022/09/13 04:04:06;;;;;;;106.27;46.90;;;;;;;17.90;100.00;99566.00;1632782;86;21400;-72
2022/09/13 04:06:33;;;;;;;103.72;46.68;;;;;;;18.00;100.00;99566.36;1613898;86;21016;-73
2022/09/13 04:09:00;;;;;;;102.15;45.58;;;;;;;17.99;100.00;99560.80;1628498;86;21512;-73
2022/09/13 04:11:30;;;;;;;101.72;46.40;;;;;;;17.99;100.00;99560.80;1627364;85;21116;-73
2022/09/13 04:13:58;;;;;;;100.02;45.80;;;;;;;17.99;100.00;85062.77;1639326;86;21087;-72
2022/09/13 12:41:24;;;;;;;7.92;7.12;;;;;;;20.09;100.00;99660.75;1814735;77;22931;-73
2022/09/13 12:44:24;;;;;;;8.10;7.40;;;;;;;-91.22;100.00;114090.72;1785810;78;21070;-74
